createdAt,value
2023-03-27T00:02:23.750Z,101822.63
2023-03-27T00:04:51.108Z,101828.28
2023-03-27T00:07:20.356Z,101829.19
2023-03-27T00:09:47.501Z,101831.75
2023-03-27T00:12:14.556Z,101836.28
2023-03-27T00:14:41.908Z,101839.94
2023-03-27T00:17:09.810Z,101834.66
2023-03-27T00:19:37.185Z,101846.50
2023-03-27T00:22:04.277Z,101840.88
2023-03-27T00:24:31.700Z,101848.75
2023-03-27T00:26:58.920Z,101862.28
2023-03-27T00:29:26.297Z,101862.00
2023-03-27T00:31:53.492Z,101862.56
2023-03-27T00:34:20.853Z,101858.38
2023-03-27T00:36:51.533Z,101871.31
2023-03-27T00:39:19.655Z,101875.00
2023-03-27T00:41:47.780Z,101877.81
2023-03-27T00:44:24.371Z,101879.22
2023-03-27T00:46:52.715Z,101876.41
2023-03-27T00:49:20.383Z,101878.69
2023-03-27T00:51:48.680Z,101885.47
2023-03-27T00:54:18.293Z,101888.00
2023-03-27T00:56:46.363Z,101894.13
2023-03-27T00:59:16.974Z,101905.72
2023-03-27T01:01:45.407Z,101911.63
2023-03-27T01:04:12.844Z,101914.19
2023-03-27T01:06:42.476Z,101918.97
2023-03-27T01:09:09.992Z,101905.19
2023-03-27T01:11:40.203Z,101912.81
2023-03-27T01:14:10.237Z,101917.88
2023-03-27T01:16:37.647Z,101919.28
2023-03-27T01:19:17.982Z,101922.09
2023-03-27T01:21:48.306Z,101916.19
2023-03-27T01:24:18.457Z,101917.31
2023-03-27T01:26:49.175Z,101925.50
2023-03-27T01:29:23.054Z,101921.84
2023-03-27T01:31:53.398Z,101918.75
2023-03-27T01:34:23.595Z,101917.38
2023-03-27T01:36:52.386Z,101915.69
2023-03-27T01:39:19.857Z,101922.72
2023-03-27T01:41:47.416Z,101934.81
2023-03-27T01:44:14.982Z,101928.66
2023-03-27T01:46:47.364Z,101931.47
2023-03-27T01:49:17.629Z,101924.75
2023-03-27T01:51:49.177Z,101928.94
2023-03-27T01:54:22.402Z,101934.03
2023-03-27T01:56:54.284Z,101936.53
2023-03-27T01:59:24.755Z,101923.66
2023-03-27T02:01:55.081Z,101933.47
2023-03-27T02:04:24.615Z,101934.06
2023-03-27T02:06:55.245Z,101940.78
2023-03-27T02:09:26.933Z,101943.06
2023-03-27T02:11:57.442Z,101945.28
2023-03-27T02:14:29.164Z,101945.88
2023-03-27T02:16:58.934Z,101966.66
2023-03-27T02:19:30.773Z,101976.19
2023-03-27T02:21:58.194Z,101978.47
2023-03-27T02:24:25.641Z,101977.31
2023-03-27T02:26:57.794Z,101983.78
2023-03-27T02:29:28.050Z,101984.63
2023-03-27T02:31:58.278Z,101978.75
2023-03-27T02:34:29.651Z,101979.88
2023-03-27T02:37:02.614Z,101980.16
2023-03-27T02:39:34.317Z,101979.03
2023-03-27T02:42:05.031Z,101970.91
2023-03-27T02:44:46.910Z,101970.06
2023-03-27T02:47:18.931Z,101990.28
2023-03-27T02:49:50.451Z,101998.13
2023-03-27T02:52:20.801Z,101992.53
2023-03-27T02:54:53.822Z,101987.47
2023-03-27T02:57:25.274Z,101989.72
2023-03-27T02:59:55.897Z,101995.63
2023-03-27T03:02:27.728Z,101999.25
2023-03-27T03:04:57.639Z,102005.97
2023-03-27T03:07:27.041Z,102016.34
2023-03-27T03:09:54.623Z,102022.53
2023-03-27T03:12:22.068Z,102026.47
2023-03-27T03:14:49.339Z,102032.06
2023-03-27T03:17:17.034Z,102035.16
2023-03-27T03:19:44.187Z,102046.94
2023-03-27T03:22:11.741Z,102045.25
2023-03-27T03:24:42.522Z,102043.56
2023-03-27T03:27:09.719Z,102049.75
2023-03-27T03:29:37.913Z,102056.19
2023-03-27T03:32:06.205Z,102050.84
2023-03-27T03:34:34.560Z,102047.78
2023-03-27T03:37:01.843Z,102049.72
2023-03-27T03:39:29.097Z,102058.41
2023-03-27T03:41:56.432Z,102064.88
2023-03-27T03:44:23.562Z,102066.56
2023-03-27T03:46:50.792Z,102069.34
2023-03-27T03:49:17.957Z,102062.91
2023-03-27T03:51:45.193Z,102059.53
2023-03-27T03:54:12.479Z,102078.03
2023-03-27T03:56:41.896Z,102081.66
2023-03-27T03:59:09.599Z,102073.81
2023-03-27T04:01:36.881Z,102068.50
2023-03-27T04:04:04.539Z,102081.97
2023-03-27T04:06:33.068Z,102083.09
2023-03-27T04:09:00.162Z,102089.81
2023-03-27T04:11:27.234Z,102086.72
2023-03-27T04:13:54.378Z,102092.91
2023-03-27T04:16:21.842Z,102099.59
2023-03-27T04:18:51.011Z,102106.06
2023-03-27T04:21:18.452Z,102115.31
2023-03-27T04:23:46.198Z,102114.47
2023-03-27T04:26:13.490Z,102117.81
2023-03-27T04:28:41.018Z,102113.88
2023-03-27T04:31:11.030Z,102116.13
2023-03-27T04:33:39.862Z,102116.69
2023-03-27T04:36:08.273Z,102119.19
2023-03-27T04:38:37.350Z,102132.09
2023-03-27T04:41:05.366Z,102125.06
2023-03-27T04:43:32.607Z,102122.56
2023-03-27T04:45:59.682Z,102120.28
2023-03-27T04:48:27.026Z,102125.06
2023-03-27T04:50:54.475Z,102124.22
2023-03-27T04:53:21.808Z,102123.09
2023-03-27T04:55:51.637Z,102129.31
2023-03-27T04:58:19.218Z,102132.13
2023-03-27T05:00:50.920Z,102134.97
2023-03-27T05:03:19.511Z,102134.13
2023-03-27T05:05:48.179Z,102138.91
2023-03-27T05:08:15.531Z,102142.56
2023-03-27T05:10:42.807Z,102140.06
2023-03-27T05:13:11.152Z,102142.03
2023-03-27T05:15:39.446Z,102140.63
2023-03-27T05:18:07.675Z,102144.03
2023-03-27T05:20:35.424Z,102141.78
2023-03-27T05:23:02.629Z,102142.91
2023-03-27T05:25:30.359Z,102143.78
2023-03-27T05:27:57.601Z,102144.09
2023-03-27T05:30:25.314Z,102146.91
2023-03-27T05:32:53.995Z,102150.56
2023-03-27T05:35:22.840Z,102150.56
2023-03-27T05:37:50.867Z,102152.53
2023-03-27T05:40:22.293Z,102153.66
2023-03-27T05:42:50.936Z,102165.75
2023-03-27T05:45:18.413Z,102160.97
2023-03-27T05:47:46.012Z,102162.13
2023-03-27T05:50:13.482Z,102167.16
2023-03-27T05:52:40.992Z,102175.59
2023-03-27T05:55:08.683Z,102177.00
2023-03-27T05:57:39.215Z,102182.88
2023-03-27T06:00:10.886Z,102185.16
2023-03-27T06:02:39.551Z,102185.69
2023-03-27T06:05:07.938Z,102191.59
2023-03-27T06:07:35.202Z,102197.78
2023-03-27T06:10:03.527Z,102199.16
2023-03-27T06:12:30.788Z,102197.78
2023-03-27T06:14:57.994Z,102198.31
2023-03-27T06:17:25.345Z,102198.91
2023-03-27T06:19:52.426Z,102200.28
2023-03-27T06:22:19.575Z,102200.03
2023-03-27T06:24:46.928Z,102203.97
2023-03-27T06:27:14.121Z,102203.97
2023-03-27T06:29:42.113Z,102207.88
2023-03-27T06:32:09.319Z,102219.13
2023-03-27T06:34:36.438Z,102226.16
2023-03-27T06:37:04.016Z,102227.59
2023-03-27T06:39:31.719Z,102223.06
2023-03-27T06:41:59.101Z,102231.22
2023-03-27T06:44:26.307Z,102232.59
2023-03-27T06:46:53.970Z,102230.38
2023-03-27T06:49:21.815Z,102241.31
2023-03-27T06:51:48.912Z,102243.28
2023-03-27T06:54:16.039Z,102236.28
2023-03-27T06:56:44.709Z,102248.06
2023-03-27T06:59:12.567Z,102253.72
2023-03-27T07:01:39.722Z,102250.66
2023-03-27T07:04:07.470Z,102259.66
2023-03-27T07:06:34.741Z,102250.38
2023-03-27T07:09:01.760Z,102256.53
2023-03-27T07:11:31.332Z,102261.59
2023-03-27T07:13:59.368Z,102267.22
2023-03-27T07:16:27.042Z,102266.09
2023-03-27T07:18:54.437Z,102274.81
2023-03-27T07:21:21.645Z,102274.25
2023-03-27T07:23:48.836Z,102278.47
2023-03-27T07:26:19.125Z,102281.56
2023-03-27T07:28:46.585Z,102283.81
2023-03-27T07:31:31.560Z,102285.78
2023-03-27T07:34:02.284Z,102279.59
2023-03-27T07:36:29.591Z,102283.78
2023-03-27T07:38:57.296Z,102283.25
2023-03-27T07:41:24.655Z,102286.59
2023-03-27T07:43:52.046Z,102279.56
2023-03-27T07:46:19.725Z,102286.59
2023-03-27T07:48:46.988Z,102294.75
2023-03-27T07:51:14.539Z,102290.25
2023-03-27T07:53:42.135Z,102295.59
2023-03-27T07:56:16.805Z,102300.91
2023-03-27T07:58:44.032Z,102302.63
2023-03-27T08:01:12.136Z,102306.28
2023-03-27T08:03:39.702Z,102302.34
2023-03-27T08:06:07.953Z,102303.72
2023-03-27T08:08:40.372Z,102304.84
2023-03-27T08:11:13.625Z,102313.00
2023-03-27T08:13:50.782Z,102312.16
2023-03-27T08:16:18.755Z,102317.78
2023-03-27T08:18:48.027Z,102317.78
2023-03-27T08:21:15.422Z,102320.63
2023-03-27T08:23:43.179Z,102324.53
2023-03-27T08:26:17.536Z,102326.25
2023-03-27T08:28:44.748Z,102329.06
2023-03-27T08:31:14.272Z,102331.31
2023-03-27T08:33:42.535Z,102326.81
2023-03-27T08:36:11.602Z,102342.28
2023-03-27T08:38:40.053Z,102336.09
2023-03-27T08:41:07.281Z,102338.34
2023-03-27T08:43:36.872Z,102344.81
2023-03-27T08:46:17.483Z,102340.31
2023-03-27T08:48:48.712Z,102343.44
2023-03-27T08:51:20.500Z,102345.41
2023-03-27T08:53:51.158Z,102344.81
2023-03-27T08:56:26.324Z,102345.13
2023-03-27T08:58:54.202Z,102349.31
2023-03-27T09:01:26.862Z,102356.91
2023-03-27T09:03:57.322Z,102356.38
2023-03-27T09:06:40.585Z,102354.69
2023-03-27T09:09:12.060Z,102349.06
2023-03-27T09:11:46.496Z,102355.53
2023-03-27T09:14:21.023Z,102363.38
2023-03-27T09:17:05.598Z,102362.00
2023-03-27T09:19:36.025Z,102363.97
2023-03-27T09:22:06.306Z,102358.06
2023-03-27T09:24:36.938Z,102361.72
2023-03-27T09:27:14.856Z,102361.16
2023-03-27T09:29:42.304Z,102367.63
2023-03-27T09:32:12.587Z,102363.38
2023-03-27T09:34:39.800Z,102370.13
2023-03-27T09:37:12.386Z,102361.16
2023-03-27T09:39:42.717Z,102366.47
2023-03-27T09:42:17.541Z,102362.28
2023-03-27T09:44:46.139Z,102358.31
2023-03-27T09:47:18.624Z,102362.53
2023-03-27T09:49:50.692Z,102360.00
2023-03-27T09:52:21.232Z,102369.03
2023-03-27T09:54:51.632Z,102369.03
2023-03-27T09:57:19.206Z,102363.97
2023-03-27T09:59:49.553Z,102365.06
2023-03-27T10:02:18.329Z,102374.63
2023-03-27T10:04:54.307Z,102370.44
2023-03-27T10:07:23.967Z,102372.94
2023-03-27T10:09:54.288Z,102373.22
2023-03-27T10:12:21.836Z,102375.47
2023-03-27T10:14:52.899Z,102374.63
2023-03-27T10:17:23.298Z,102369.00
2023-03-27T10:19:53.499Z,102378.56
2023-03-27T10:22:27.590Z,102374.34
2023-03-27T10:24:59.392Z,102375.75
2023-03-27T10:27:29.970Z,102374.88
2023-03-27T10:29:58.350Z,102370.94
2023-03-27T10:32:43.620Z,102376.59
2023-03-27T10:35:19.152Z,102375.47
2023-03-27T10:37:50.064Z,102383.63
2023-03-27T10:40:19.304Z,102372.38
2023-03-27T10:42:47.665Z,102369.25
2023-03-27T10:45:17.326Z,102375.75
2023-03-27T10:47:48.101Z,102369.84
2023-03-27T10:50:16.817Z,102373.19
2023-03-27T10:52:51.907Z,102367.03
2023-03-27T10:55:20.381Z,102378.00
2023-03-27T10:57:50.109Z,102378.81
2023-03-27T11:00:23.111Z,102378.28
2023-03-27T11:02:57.971Z,102378.28
2023-03-27T11:05:29.245Z,102375.44
2023-03-27T11:08:03.407Z,102376.31
2023-03-27T11:10:33.615Z,102383.59
2023-03-27T11:13:04.699Z,102379.66
2023-03-27T11:15:37.332Z,102377.44
2023-03-27T11:18:07.577Z,102373.75
2023-03-27T11:20:37.780Z,102376.84
2023-03-27T11:23:08.056Z,102377.44
2023-03-27T11:25:40.154Z,102376.31
2023-03-27T11:28:16.696Z,102383.34
2023-03-27T11:30:48.606Z,102377.44
2023-03-27T11:33:18.884Z,102383.91
2023-03-27T11:35:51.003Z,102384.78
2023-03-27T11:38:19.970Z,102385.34
2023-03-27T11:40:48.417Z,102388.72
2023-03-27T11:43:17.191Z,102387.88
2023-03-27T11:45:55.213Z,102387.03
2023-03-27T11:48:25.340Z,102391.25
2023-03-27T11:50:54.106Z,102385.34
2023-03-27T11:53:21.695Z,102388.44
2023-03-27T11:55:51.911Z,102384.19
2023-03-27T11:58:22.324Z,102384.75
2023-03-27T12:03:18.065Z,102382.50
2023-03-27T12:05:48.757Z,102375.19
2023-03-27T12:08:19.821Z,102389.28
2023-03-27T12:10:48.253Z,102382.22
2023-03-27T12:13:17.064Z,102380.53
2023-03-27T12:15:47.152Z,102392.34
2023-03-27T12:18:17.238Z,102383.66
2023-03-27T12:20:52.874Z,102387.00
2023-03-27T12:23:23.816Z,102393.47
2023-03-27T12:25:58.828Z,102385.03
2023-03-27T12:28:29.102Z,102378.03
2023-03-27T12:31:01.173Z,102377.44
2023-03-27T12:33:29.477Z,102383.09
2023-03-27T12:35:58.373Z,102388.72
2023-03-27T12:38:30.516Z,102392.09
2023-03-27T12:41:06.667Z,102391.25
2023-03-27T12:43:39.897Z,102394.34
2023-03-27T12:46:20.622Z,102397.72
2023-03-27T12:48:50.677Z,102396.03
2023-03-27T12:51:20.739Z,102388.44
2023-03-27T12:53:49.195Z,102387.31
2023-03-27T12:56:27.694Z,102395.16
2023-03-27T12:58:55.608Z,102396.00
2023-03-27T13:01:52.349Z,102396.56
2023-03-27T13:04:38.339Z,102390.38
2023-03-27T13:07:05.522Z,102389.50
2023-03-27T13:09:35.303Z,102390.91
2023-03-27T13:12:14.156Z,102385.84
2023-03-27T13:14:49.925Z,102388.06
2023-03-27T13:17:22.947Z,102383.56
2023-03-27T13:19:49.722Z,102382.69
2023-03-27T13:22:36.908Z,102384.66
2023-03-27T13:25:04.708Z,102372.56
2023-03-27T13:28:09.022Z,102373.13
2023-03-27T13:30:53.051Z,102369.72
2023-03-27T13:33:51.663Z,102370.56
2023-03-27T13:36:25.083Z,102370.84
2023-03-27T13:38:55.337Z,102370.84
2023-03-27T13:41:41.149Z,102370.03
2023-03-27T13:44:26.758Z,102366.66
2023-03-27T13:46:56.449Z,102385.53
2023-03-27T13:49:23.357Z,102379.03
2023-03-27T13:51:58.459Z,102366.94
2023-03-27T13:54:28.228Z,102375.69
2023-03-27T13:57:13.682Z,102377.34
2023-03-27T13:59:55.698Z,102369.19
2023-03-27T14:02:40.966Z,102370.06
2023-03-27T14:05:10.607Z,102369.75
2023-03-27T14:07:41.685Z,102375.13
2023-03-27T14:10:31.577Z,102380.75
2023-03-27T14:13:01.443Z,102376.53
2023-03-27T14:15:30.869Z,102377.38
2023-03-27T14:18:05.981Z,102378.50
2023-03-27T14:20:45.811Z,102375.13
2023-03-27T14:23:24.041Z,102366.41
2023-03-27T14:25:55.059Z,102368.94
2023-03-27T14:28:34.968Z,102372.31
2023-03-27T14:31:06.266Z,102368.69
2023-03-27T14:33:34.231Z,102364.72
2023-03-27T14:36:18.366Z,102363.34
2023-03-27T14:38:45.174Z,102368.13
2023-03-27T14:41:22.529Z,102367.56
2023-03-27T14:43:49.565Z,102365.31
2023-03-27T14:46:27.460Z,102365.06
2023-03-27T14:48:57.340Z,102361.41
2023-03-27T14:51:35.156Z,102358.84
2023-03-27T14:54:07.382Z,102367.88
2023-03-27T14:56:41.932Z,102364.78
2023-03-27T14:59:13.982Z,102358.59
2023-03-27T15:01:42.428Z,102355.78
2023-03-27T15:04:11.541Z,102349.59
2023-03-27T15:06:38.722Z,102357.22
2023-03-27T15:09:13.086Z,102354.94
2023-03-27T15:11:41.384Z,102360.56
2023-03-27T15:14:19.047Z,102356.94
2023-03-27T15:17:10.822Z,102353.28
2023-03-27T15:19:49.211Z,102353.28
2023-03-27T15:22:23.435Z,102351.56
2023-03-27T15:24:57.393Z,102347.63
2023-03-27T15:27:44.318Z,102345.09
2023-03-27T15:30:29.258Z,102347.63
2023-03-27T15:32:57.453Z,102343.69
2023-03-27T15:35:24.274Z,102349.06
2023-03-27T15:37:51.289Z,102349.06
2023-03-27T15:40:26.960Z,102353.84
2023-03-27T15:43:00.842Z,102345.94
2023-03-27T15:45:42.992Z,102349.91
2023-03-27T15:48:20.191Z,102353.84
2023-03-27T15:50:57.009Z,102350.44
2023-03-27T15:53:42.857Z,102350.75
2023-03-27T15:56:19.748Z,102344.28
2023-03-27T15:58:48.312Z,102338.66
2023-03-27T16:01:23.396Z,102335.53
2023-03-27T16:03:51.713Z,102341.19
2023-03-27T16:06:28.765Z,102335.56
2023-03-27T16:08:55.850Z,102336.41
2023-03-27T16:11:40.777Z,102327.66
2023-03-27T16:14:28.346Z,102326.53
2023-03-27T16:17:17.255Z,102332.19
2023-03-27T16:19:56.603Z,102334.13
2023-03-27T16:22:24.592Z,102316.16
2023-03-27T16:24:51.773Z,102329.94
2023-03-27T16:27:23.092Z,102323.47
2023-03-27T16:29:51.297Z,102318.41
2023-03-27T16:32:19.075Z,102311.34
2023-03-27T16:34:47.976Z,102316.44
2023-03-27T16:37:15.681Z,102316.97
2023-03-27T16:39:42.897Z,102310.53
2023-03-27T16:42:14.392Z,102311.66
2023-03-27T16:44:41.510Z,102302.38
2023-03-27T16:47:08.292Z,102299.81
2023-03-27T16:49:35.171Z,102296.47
2023-03-27T16:52:01.995Z,102302.94
2023-03-27T16:54:28.747Z,102305.44
2023-03-27T16:56:56.624Z,102303.19
2023-03-27T16:59:23.553Z,102302.09
2023-03-27T17:01:50.735Z,102295.00
2023-03-27T17:04:17.691Z,102293.63
2023-03-27T17:06:44.596Z,102296.69
2023-03-27T17:09:12.844Z,102295.31
2023-03-27T17:11:39.660Z,102293.88
2023-03-27T17:14:06.520Z,102288.25
2023-03-27T17:16:33.559Z,102294.44
2023-03-27T17:19:00.555Z,102290.78
2023-03-27T17:21:27.762Z,102285.44
2023-03-27T17:23:54.617Z,102281.50
2023-03-27T17:26:24.798Z,102290.22
2023-03-27T17:28:51.710Z,102291.06
2023-03-27T17:31:18.506Z,102294.41
2023-03-27T17:33:45.642Z,102298.91
2023-03-27T17:36:36.767Z,102303.66
2023-03-27T17:39:08.205Z,102302.28
2023-03-27T17:41:35.079Z,102305.06
2023-03-27T17:44:02.146Z,102303.09
2023-03-27T17:46:28.975Z,102306.47
2023-03-27T17:48:57.478Z,102316.84
2023-03-27T17:51:24.238Z,102314.06
2023-03-27T17:53:51.028Z,102314.91
2023-03-27T17:56:17.958Z,102316.28
2023-03-27T17:58:48.941Z,102311.81
2023-03-27T18:01:19.618Z,102324.41
2023-03-27T18:03:46.782Z,102316.25
2023-03-27T18:06:18.157Z,102320.75
2023-03-27T18:08:45.461Z,102318.78
2023-03-27T18:11:12.898Z,102315.09
2023-03-27T18:13:40.315Z,102314.81
2023-03-27T18:16:14.949Z,102320.41
2023-03-27T18:18:42.320Z,102326.03
2023-03-27T18:21:09.299Z,102324.09
2023-03-27T18:23:38.140Z,102327.44
2023-03-27T18:26:13.565Z,102317.91
2023-03-27T18:28:40.909Z,102326.06
2023-03-27T18:31:09.416Z,102319.38
2023-03-27T18:33:36.817Z,102321.34
2023-03-27T18:36:08.079Z,102317.72
2023-03-27T18:38:35.725Z,102323.34
2023-03-27T18:41:02.741Z,102318.84
2023-03-27T18:43:30.357Z,102323.34
2023-03-27T18:45:58.909Z,102321.66
2023-03-27T18:48:26.716Z,102327.88
2023-03-27T18:50:56.952Z,102321.44
2023-03-27T18:53:24.285Z,102321.44
2023-03-27T18:55:52.303Z,102322.28
2023-03-27T18:58:20.478Z,102315.03
2023-03-27T19:00:47.460Z,102321.78
2023-03-27T19:03:15.947Z,102316.44
2023-03-27T19:05:42.876Z,102320.09
2023-03-27T19:08:09.859Z,102320.38
2023-03-27T19:10:39.530Z,102320.38
2023-03-27T19:13:06.593Z,102327.97
2023-03-27T19:15:36.341Z,102328.22
2023-03-27T19:18:06.553Z,102322.88
2023-03-27T19:20:33.628Z,102325.16
2023-03-27T19:23:00.738Z,102322.63
2023-03-27T19:25:28.003Z,102327.41
2023-03-27T19:27:55.156Z,102325.69
2023-03-27T19:30:22.338Z,102327.09
2023-03-27T19:32:52.038Z,102319.81
2023-03-27T19:35:20.381Z,102323.16
2023-03-27T19:37:47.852Z,102321.47
2023-03-27T19:40:15.668Z,102321.72
2023-03-27T19:42:42.652Z,102316.41
2023-03-27T19:45:09.833Z,102323.41
2023-03-27T19:47:37.133Z,102318.38
2023-03-27T19:50:05.127Z,102328.19
2023-03-27T19:52:32.131Z,102337.47
2023-03-27T19:54:59.027Z,102330.78
2023-03-27T19:57:25.858Z,102336.94
2023-03-27T19:59:52.813Z,102330.19
2023-03-27T20:02:19.901Z,102328.22
2023-03-27T20:04:47.055Z,102331.88
2023-03-27T20:07:13.981Z,102339.47
2023-03-27T20:09:41.032Z,102345.38
2023-03-27T20:12:08.249Z,102336.09
2023-03-27T20:14:35.372Z,102336.94
2023-03-27T20:17:02.418Z,102345.69
2023-03-27T20:19:31.539Z,102347.66
2023-03-27T20:21:58.637Z,102343.13
2023-03-27T20:24:29.196Z,102350.97
2023-03-27T20:26:57.614Z,102352.13
2023-03-27T20:29:25.359Z,102349.59
2023-03-27T20:31:52.499Z,102349.88
2023-03-27T20:34:23.018Z,102353.84
2023-03-27T20:36:53.696Z,102350.16
2023-03-27T20:39:21.193Z,102352.41
2023-03-27T20:41:50.312Z,102355.50
2023-03-27T20:44:17.518Z,102353.53
2023-03-27T20:46:48.625Z,102352.97
2023-03-27T20:51:53.846Z,102354.69
2023-03-27T20:54:20.970Z,102361.69
2023-03-27T20:56:48.332Z,102355.22
2023-03-27T20:59:15.369Z,102356.06
2023-03-27T21:01:45.488Z,102352.41
2023-03-27T21:04:13.300Z,102354.69
2023-03-27T21:06:41.136Z,102351.03
2023-03-27T21:09:08.444Z,102347.34
2023-03-27T21:11:35.844Z,102354.38
2023-03-27T21:14:03.355Z,102351.03
2023-03-27T21:16:30.400Z,102339.19
2023-03-27T21:18:57.507Z,102350.47
2023-03-27T21:21:24.597Z,102351.84
2023-03-27T21:23:54.221Z,102343.13
2023-03-27T21:26:21.432Z,102337.78
2023-03-27T21:28:51.435Z,102337.19
2023-03-27T21:31:18.374Z,102340.31
2023-03-27T21:33:45.652Z,102340.84
2023-03-27T21:36:13.525Z,102342.28
2023-03-27T21:38:40.688Z,102343.38
2023-03-27T21:41:07.903Z,102341.09
2023-03-27T21:43:34.935Z,102332.09
2023-03-27T21:46:03.977Z,102328.13
2023-03-27T21:48:31.471Z,102321.13
2023-03-27T21:50:59.133Z,102325.31
2023-03-27T21:53:25.997Z,102329.53
2023-03-27T21:55:53.040Z,102331.25
2023-03-27T21:58:20.099Z,102327.28
2023-03-27T22:00:49.745Z,102330.09
2023-03-27T22:03:16.771Z,102337.13
2023-03-27T22:05:45.921Z,102327.00
2023-03-27T22:08:17.607Z,102327.00
2023-03-27T22:10:44.522Z,102327.00
2023-03-27T22:13:13.789Z,102325.03
2023-03-27T22:15:44.017Z,102316.84
2023-03-27T22:18:13.958Z,102317.69
2023-03-27T22:20:41.160Z,102311.22
2023-03-27T22:23:08.026Z,102321.34
2023-03-27T22:25:37.157Z,102311.22
2023-03-27T22:28:04.894Z,102313.19
2023-03-27T22:30:32.143Z,102312.34
2023-03-27T22:32:59.325Z,102312.66
2023-03-27T22:35:26.866Z,102314.91
2023-03-27T22:37:53.649Z,102313.19
2023-03-27T22:40:20.672Z,102315.19
2023-03-27T22:42:47.364Z,102311.25
2023-03-27T22:45:14.154Z,102309.28
2023-03-27T22:47:41.035Z,102313.78
2023-03-27T22:50:08.981Z,102320.84
2023-03-27T22:52:35.863Z,102312.69
2023-03-27T22:55:02.871Z,102304.50
2023-03-27T22:57:29.780Z,102298.34
2023-03-27T22:59:56.791Z,102294.94
2023-03-27T23:02:23.783Z,102301.69
2023-03-27T23:04:50.822Z,102296.38
2023-03-27T23:07:17.571Z,102298.34
2023-03-27T23:09:44.461Z,102293.31
2023-03-27T23:12:11.493Z,102295.28
2023-03-27T23:14:39.413Z,102289.06
2023-03-27T23:17:06.403Z,102286.53
2023-03-27T23:19:33.173Z,102297.50
2023-03-27T23:22:00.093Z,102295.28
2023-03-27T23:24:26.853Z,102297.25
2023-03-27T23:26:53.544Z,102291.91
2023-03-27T23:29:20.656Z,102299.22
2023-03-27T23:31:47.489Z,102293.88
2023-03-27T23:34:14.456Z,102298.69
2023-03-27T23:36:41.482Z,102285.44
2023-03-27T23:39:08.240Z,102286.84
2023-03-27T23:41:35.039Z,102273.03
2023-03-27T23:44:01.835Z,102285.16
2023-03-27T23:46:28.688Z,102283.75
2023-03-27T23:48:55.603Z,102280.94
2023-03-27T23:51:22.353Z,102279.56
2023-03-27T23:53:49.123Z,102282.66
2023-03-27T23:56:18.419Z,102283.50
2023-03-27T23:58:45.153Z,102277.03
